createdAt,value
2022-08-23T00:00:44.609Z,2.97
2022-08-23T00:03:11.347Z,1.98
2022-08-23T00:05:38.279Z,1.77
2022-08-23T00:08:05.417Z,3.97
2022-08-23T00:10:32.613Z,1.65
2022-08-23T00:15:25.408Z,2.55
2022-08-23T00:17:52.255Z,1.67
2022-08-23T00:20:20.408Z,1.95
2022-08-23T00:22:47.439Z,2.40
2022-08-23T00:25:15.569Z,1.52
2022-08-23T00:27:42.634Z,3.45
2022-08-23T00:30:10.935Z,1.63
2022-08-23T00:32:38.306Z,2.08
2022-08-23T00:37:32.541Z,2.55
2022-08-23T00:39:59.730Z,1.70
2022-08-23T00:47:58.930Z,2.05
2022-08-23T00:50:28.152Z,2.42
2022-08-23T01:00:21.574Z,1.75
2022-08-23T01:02:50.375Z,1.45
2022-08-23T01:05:17.112Z,1.42
2022-08-23T01:07:47.002Z,1.27
2022-08-23T01:10:23.145Z,3.60
2022-08-23T01:12:55.729Z,1.65
2022-08-23T01:15:45.469Z,2.80
2022-08-23T01:20:45.296Z,5.65
2022-08-23T01:28:08.768Z,2.88
2022-08-23T01:30:36.138Z,2.80
2022-08-23T01:33:04.988Z,1.83
2022-08-23T01:35:35.731Z,3.15
2022-08-23T01:40:28.490Z,3.53
2022-08-23T01:42:55.232Z,1.85
2022-08-23T01:50:13.579Z,1.80
2022-08-23T01:52:57.310Z,2.28
2022-08-23T01:55:25.977Z,2.70
2022-08-23T02:02:48.373Z,3.10
2022-08-23T02:05:18.942Z,1.38
2022-08-23T02:07:47.177Z,2.67
2022-08-23T02:10:14.561Z,1.65
2022-08-23T02:15:06.950Z,1.55
2022-08-23T02:17:37.027Z,2.88
2022-08-23T02:22:30.913Z,2.47
2022-08-23T02:24:58.027Z,1.67
2022-08-23T02:27:24.794Z,2.17
2022-08-23T02:29:52.143Z,2.38
2022-08-23T02:32:20.385Z,4.40
2022-08-23T02:37:13.806Z,4.50
2022-08-23T02:39:41.146Z,3.22
2022-08-23T02:44:35.628Z,2.83
2022-08-23T02:47:03.156Z,1.52
2022-08-23T02:51:55.707Z,3.00
2022-08-23T02:54:22.657Z,2.05
2022-08-23T02:56:49.764Z,2.53
2022-08-23T02:59:16.479Z,2.67
2022-08-23T03:01:43.156Z,2.40
2022-08-23T03:06:36.498Z,3.33
2022-08-23T03:09:07.618Z,2.85
2022-08-23T03:11:34.787Z,1.73
2022-08-23T03:14:02.114Z,3.17
2022-08-23T03:16:29.354Z,2.47
2022-08-23T03:21:21.788Z,4.10
2022-08-23T03:23:48.895Z,4.20
2022-08-23T03:26:15.735Z,2.10
2022-08-23T03:28:43.507Z,2.58
2022-08-23T03:31:12.428Z,2.45
2022-08-23T03:33:48.125Z,2.03
2022-08-23T03:36:15.113Z,2.20
2022-08-23T03:38:42.096Z,4.47
2022-08-23T03:43:34.822Z,3.90
2022-08-23T03:46:01.942Z,3.45
2022-08-23T04:03:03.468Z,3.95
2022-08-23T04:05:33.884Z,2.97
2022-08-23T04:08:02.534Z,2.83
2022-08-23T04:10:29.603Z,4.35
2022-08-23T04:12:56.615Z,4.53
2022-08-23T04:15:23.379Z,2.08
2022-08-23T04:17:50.221Z,3.40
2022-08-23T04:20:17.094Z,4.75
2022-08-23T04:22:52.857Z,4.55
2022-08-23T04:25:34.382Z,2.60
2022-08-23T04:37:44.408Z,5.78
2022-08-23T04:42:57.288Z,2.65
2022-08-23T04:45:25.141Z,4.15
2022-08-23T04:47:52.829Z,4.32
2022-08-23T04:50:19.638Z,2.45
2022-08-23T04:58:00.230Z,4.18
2022-08-23T05:02:56.962Z,4.63
2022-08-23T05:05:24.514Z,4.70
2022-08-23T05:07:51.545Z,6.40
2022-08-23T05:10:18.609Z,7.47
2022-08-23T05:12:49.108Z,5.07
2022-08-23T05:15:15.914Z,8.30
2022-08-23T05:17:46.404Z,3.85
2022-08-23T05:20:13.145Z,12.57
2022-08-23T05:22:42.171Z,4.50
2022-08-23T05:25:51.551Z,6.30
2022-08-23T05:38:10.625Z,4.07
2022-08-23T05:45:34.673Z,6.07
2022-08-23T05:48:03.866Z,8.70
2022-08-23T05:50:40.169Z,6.45
2022-08-23T05:53:08.028Z,12.48
2022-08-23T05:55:35.790Z,3.90
2022-08-23T05:58:19.445Z,2.53
2022-08-23T06:00:46.433Z,5.18
2022-08-23T06:03:13.557Z,6.22
2022-08-23T06:10:32.499Z,3.08
2022-08-23T06:15:29.170Z,6.63
2022-08-23T06:17:56.654Z,4.55
2022-08-23T06:20:23.889Z,6.25
2022-08-23T06:23:11.248Z,5.78
2022-08-23T06:30:30.492Z,4.97
2022-08-23T06:33:00.140Z,5.57
2022-08-23T06:35:45.787Z,6.45
2022-08-23T06:38:13.052Z,6.30
2022-08-23T06:40:52.140Z,6.75
2022-08-23T06:43:18.782Z,4.28
2022-08-23T06:45:58.117Z,5.63
2022-08-23T06:50:50.732Z,3.58
2022-08-23T06:58:28.078Z,7.18
2022-08-23T07:01:28.617Z,2.80
2022-08-23T07:04:15.251Z,4.20
2022-08-23T07:09:08.155Z,6.15
2022-08-23T07:11:35.050Z,6.20
2022-08-23T07:16:34.110Z,5.68
2022-08-23T07:19:01.252Z,4.35
2022-08-23T07:21:28.255Z,3.20
2022-08-23T07:23:55.515Z,4.50
2022-08-23T07:26:22.778Z,4.60
2022-08-23T07:36:08.859Z,11.57
2022-08-23T07:38:35.974Z,14.43
2022-08-23T07:41:03.807Z,6.70
2022-08-23T07:45:57.591Z,5.88
2022-08-23T07:48:50.255Z,6.10
2022-08-23T07:56:06.419Z,8.55
2022-08-23T07:59:06.100Z,7.72
2022-08-23T08:01:58.073Z,8.98
2022-08-23T08:04:24.867Z,7.40
2022-08-23T08:07:17.214Z,3.03
2022-08-23T08:12:05.469Z,3.00
2022-08-23T08:14:32.720Z,2.20
2022-08-23T08:17:02.868Z,3.75
2022-08-23T08:19:49.300Z,2.92
2022-08-23T08:22:16.026Z,2.38
2022-08-23T08:25:02.932Z,1.25
2022-08-23T08:27:29.812Z,1.48
2022-08-23T08:30:00.539Z,3.17
2022-08-23T08:32:27.935Z,1.88
2022-08-23T08:34:54.607Z,3.95
2022-08-23T08:37:21.503Z,1.05
2022-08-23T08:39:48.196Z,0.75
2022-08-23T08:42:33.007Z,2.60
2022-08-23T08:45:09.451Z,1.50
2022-08-23T08:55:22.500Z,0.73
2022-08-23T08:57:51.377Z,1.70
2022-08-23T09:00:21.142Z,1.05
2022-08-23T09:02:47.998Z,5.20
2022-08-23T09:05:16.956Z,3.35
2022-08-23T09:07:54.744Z,0.65
2022-08-23T09:10:30.568Z,1.65
2022-08-23T09:13:19.812Z,1.73
2022-08-23T09:20:58.949Z,1.27
2022-08-23T09:28:33.942Z,1.92
2022-08-23T09:31:01.617Z,1.30
2022-08-23T09:33:56.825Z,3.30
2022-08-23T09:39:06.284Z,1.65
2022-08-23T09:41:36.680Z,1.58
2022-08-23T09:46:36.002Z,2.70
2022-08-23T09:52:01.193Z,1.77
2022-08-23T09:57:01.052Z,0.82
2022-08-23T09:59:27.851Z,1.95
2022-08-23T10:04:43.343Z,3.90
2022-08-23T10:09:47.673Z,2.42
2022-08-23T10:12:14.286Z,1.65
2022-08-23T10:14:43.244Z,0.50
2022-08-23T10:17:34.248Z,1.67
2022-08-23T10:25:33.664Z,0.30
2022-08-23T10:28:35.640Z,1.35
2022-08-23T10:44:14.187Z,4.03
2022-08-23T10:46:48.693Z,0.75
2022-08-23T10:51:43.372Z,2.50
2022-08-23T10:54:13.455Z,0.52
2022-08-23T10:59:17.347Z,1.58
2022-08-23T11:02:04.276Z,2.75
2022-08-23T11:04:49.503Z,2.95
2022-08-23T11:07:41.187Z,0.70
2022-08-23T11:15:22.023Z,0.50
2022-08-23T11:17:49.637Z,0.20
2022-08-23T11:20:35.650Z,0.40
2022-08-23T11:23:04.924Z,0.82
2022-08-23T11:25:43.632Z,3.05
2022-08-23T11:28:22.440Z,0.90
2022-08-23T11:35:49.850Z,2.25
2022-08-23T11:38:37.219Z,0.45
2022-08-23T11:41:19.692Z,0.82
2022-08-23T11:43:55.770Z,0.45
2022-08-23T11:46:28.568Z,1.05
2022-08-23T11:49:18.425Z,0.38
2022-08-23T11:51:47.830Z,2.30
2022-08-23T11:54:31.392Z,1.67
2022-08-23T11:59:48.281Z,0.77
2022-08-23T12:02:33.882Z,0.40
2022-08-23T12:05:50.739Z,1.35
2022-08-23T12:08:20.749Z,1.85
2022-08-23T12:10:47.724Z,2.05
2022-08-23T12:13:34.712Z,1.30
2022-08-23T12:16:16.195Z,0.60
2022-08-23T12:21:18.749Z,0.63
2022-08-23T12:23:50.311Z,2.42
2022-08-23T12:32:13.784Z,2.05
2022-08-23T12:34:47.229Z,3.13
2022-08-23T12:37:22.971Z,1.23
2022-08-23T12:45:01.360Z,0.50
2022-08-23T12:47:28.052Z,1.50
2022-08-23T12:49:56.680Z,5.07
2022-08-23T12:57:29.807Z,4.03
2022-08-23T13:00:17.043Z,1.67
2022-08-23T13:05:34.008Z,0.77
2022-08-23T13:08:03.297Z,0.63
2022-08-23T13:12:56.152Z,0.82
2022-08-23T13:20:34.455Z,0.30
2022-08-23T13:28:02.435Z,1.52
2022-08-23T13:30:33.124Z,3.42
2022-08-23T13:33:07.937Z,1.05
2022-08-23T13:38:21.215Z,2.72
2022-08-23T13:45:54.638Z,1.05
2022-08-23T13:48:23.628Z,0.90
2022-08-23T13:50:50.680Z,3.58
2022-08-23T13:56:01.123Z,1.05
2022-08-23T14:00:58.867Z,0.73
2022-08-23T14:03:26.554Z,2.05
2022-08-23T14:05:53.445Z,1.02
2022-08-23T14:08:20.746Z,1.75
2022-08-23T14:10:47.455Z,1.67
2022-08-23T14:13:15.757Z,2.80
2022-08-23T14:16:32.901Z,0.85
2022-08-23T14:18:30.432Z,1.00
2022-08-23T14:23:22.805Z,3.50
2022-08-23T14:25:51.306Z,3.03
2022-08-23T14:33:09.943Z,2.47
2022-08-23T14:35:36.841Z,0.70
2022-08-23T14:38:04.874Z,2.80
2022-08-23T14:40:32.026Z,2.13
2022-08-23T14:47:49.640Z,1.98
2022-08-23T14:50:16.404Z,1.95
2022-08-23T14:52:45.779Z,1.40
2022-08-23T14:55:12.999Z,2.60
2022-08-23T14:57:39.742Z,3.33
2022-08-23T15:00:08.424Z,0.82
2022-08-23T15:05:02.067Z,0.93
2022-08-23T15:07:28.767Z,1.00
2022-08-23T15:25:09.770Z,0.70
2022-08-23T15:30:02.416Z,2.60
2022-08-23T15:32:29.132Z,1.90
2022-08-23T15:34:59.181Z,0.60
2022-08-23T15:37:26.292Z,1.98
2022-08-23T15:39:53.068Z,1.17
2022-08-23T15:42:20.318Z,3.25
2022-08-23T15:44:47.968Z,1.35
2022-08-23T15:47:20.011Z,1.02
2022-08-23T15:49:46.802Z,5.00
2022-08-23T15:52:13.537Z,1.20
2022-08-23T15:54:40.267Z,5.53
2022-08-23T15:57:07.067Z,4.78
2022-08-23T16:02:02.967Z,3.13
2022-08-23T16:04:34.938Z,2.95
2022-08-23T16:07:04.831Z,1.17
2022-08-23T16:09:31.643Z,6.07
2022-08-23T16:12:00.342Z,1.80
2022-08-23T16:14:27.157Z,2.17
2022-08-23T16:16:56.834Z,4.13
2022-08-23T16:19:23.535Z,3.97
2022-08-23T16:21:59.416Z,0.30
2022-08-23T16:24:27.837Z,2.42
2022-08-23T16:26:54.612Z,2.15
2022-08-23T16:29:21.636Z,7.45
2022-08-23T16:31:48.392Z,1.73
2022-08-23T16:34:16.835Z,2.90
2022-08-23T16:36:44.483Z,4.97
2022-08-23T16:39:11.813Z,1.52
2022-08-23T16:41:38.617Z,1.88
2022-08-23T16:44:06.656Z,2.58
2022-08-23T16:46:33.783Z,1.15
2022-08-23T16:49:00.837Z,2.28
2022-08-23T16:51:27.584Z,6.05
2022-08-23T16:54:02.701Z,2.67
2022-08-23T17:01:22.932Z,3.20
2022-08-23T17:03:49.749Z,2.53
2022-08-23T17:06:16.455Z,5.05
2022-08-23T17:08:43.088Z,6.30
2022-08-23T17:11:12.875Z,1.77
2022-08-23T17:13:40.043Z,5.70
2022-08-23T17:16:06.953Z,6.45
2022-08-23T17:18:34.017Z,2.20
2022-08-23T17:21:02.534Z,3.78
2022-08-23T17:23:29.291Z,3.72
2022-08-23T17:25:56.065Z,8.18
2022-08-23T17:28:23.232Z,5.35
2022-08-23T17:30:49.983Z,4.22
2022-08-23T17:33:16.634Z,2.78
2022-08-23T17:35:43.403Z,5.25
2022-08-23T17:38:10.082Z,4.03
2022-08-23T17:43:04.469Z,2.25
2022-08-23T17:45:33.892Z,1.30
2022-08-23T17:52:52.058Z,3.08
2022-08-23T18:00:11.993Z,2.58
2022-08-23T18:05:05.502Z,8.77
2022-08-23T18:07:32.605Z,7.70
2022-08-23T18:12:24.829Z,8.35
2022-08-23T18:14:51.588Z,4.60
2022-08-23T18:17:18.283Z,7.15
2022-08-23T18:19:46.594Z,8.82
2022-08-23T18:22:13.273Z,4.50
2022-08-23T18:27:24.289Z,3.03
2022-08-23T18:29:51.503Z,3.60
2022-08-23T18:32:18.638Z,4.40
2022-08-23T18:34:45.249Z,4.55
2022-08-23T18:46:55.629Z,2.15
2022-08-23T18:49:22.359Z,3.45
2022-08-23T18:51:49.066Z,3.40
2022-08-23T18:54:15.985Z,3.00
2022-08-23T18:56:42.679Z,6.00
2022-08-23T19:04:03.177Z,4.60
2022-08-23T19:06:30.285Z,4.65
2022-08-23T19:18:44.941Z,4.03
2022-08-23T19:21:13.858Z,5.93
2022-08-23T19:23:40.904Z,4.78
2022-08-23T19:26:11.227Z,3.33
2022-08-23T19:28:37.961Z,6.05
2022-08-23T19:31:05.444Z,4.53
2022-08-23T19:33:32.303Z,4.22
2022-08-23T19:35:59.116Z,3.17
2022-08-23T19:43:19.370Z,5.57
2022-08-23T19:48:12.067Z,5.15
2022-08-23T19:50:40.016Z,5.80
2022-08-23T20:00:25.276Z,6.75
2022-08-23T20:02:52.048Z,6.70
2022-08-23T20:05:18.976Z,8.07
2022-08-23T20:10:12.965Z,7.47
2022-08-23T20:12:41.728Z,7.43
2022-08-23T20:15:09.240Z,6.78
2022-08-23T20:17:36.736Z,3.65
2022-08-23T20:20:04.534Z,3.65
2022-08-23T20:25:16.216Z,2.42
2022-08-23T20:27:43.628Z,2.50
2022-08-23T20:37:30.538Z,5.53
2022-08-23T20:39:57.424Z,2.67
2022-08-23T20:42:24.238Z,5.30
2022-08-23T20:52:08.481Z,4.05
2022-08-23T20:54:35.204Z,6.65
2022-08-23T20:57:01.964Z,3.90
2022-08-23T21:01:54.359Z,4.78
2022-08-23T21:04:21.148Z,4.22
2022-08-23T21:06:49.854Z,6.00
2022-08-23T21:09:19.321Z,5.82
2022-08-23T21:11:50.702Z,8.00
2022-08-23T21:14:20.984Z,3.38
2022-08-23T21:16:47.929Z,5.13
2022-08-23T21:31:26.646Z,7.88
2022-08-23T21:36:20.246Z,4.35
2022-08-23T21:38:47.396Z,7.10
2022-08-23T21:41:41.056Z,4.75
2022-08-23T21:44:11.240Z,8.68
2022-08-23T21:46:38.033Z,6.20
2022-08-23T21:49:05.605Z,6.82
2022-08-23T21:51:34.770Z,5.43
2022-08-23T21:54:02.146Z,6.80
2022-08-23T21:56:28.827Z,6.68
2022-08-23T21:59:02.840Z,6.32
2022-08-23T22:01:30.691Z,5.78
2022-08-23T22:03:57.479Z,7.95
2022-08-23T22:06:24.482Z,6.53
2022-08-23T22:11:16.791Z,7.03
2022-08-23T22:13:43.675Z,7.95
2022-08-23T22:25:57.421Z,7.07
2022-08-23T22:28:24.381Z,9.45
2022-08-23T22:30:51.635Z,9.18
2022-08-23T22:33:21.420Z,7.07
2022-08-23T22:35:49.015Z,7.97
2022-08-23T22:38:16.060Z,7.20
2022-08-23T22:40:49.730Z,9.65
2022-08-23T22:43:16.941Z,7.60
2022-08-23T22:45:53.604Z,8.15
2022-08-23T22:50:46.323Z,9.57
2022-08-23T22:53:13.160Z,11.38
2022-08-23T22:55:41.029Z,8.70
2022-08-23T22:58:08.823Z,11.18
2022-08-23T23:00:40.903Z,9.90
2022-08-23T23:03:08.520Z,7.78
2022-08-23T23:05:37.221Z,9.93
2022-08-23T23:08:22.685Z,7.70
2022-08-23T23:10:49.433Z,8.25
2022-08-23T23:13:16.143Z,9.48
2022-08-23T23:18:08.703Z,10.73
2022-08-23T23:20:41.091Z,11.15
2022-08-23T23:23:15.807Z,10.43
2022-08-23T23:25:43.611Z,12.50
2022-08-23T23:28:10.286Z,12.45
2022-08-23T23:33:02.638Z,14.35
2022-08-23T23:35:29.359Z,9.90
2022-08-23T23:37:56.377Z,13.43
2022-08-23T23:42:50.700Z,14.25
2022-08-23T23:45:17.460Z,16.75
2022-08-23T23:50:10.503Z,24.05
2022-08-23T23:52:37.652Z,19.00
2022-08-23T23:59:57.189Z,15.40
